createdAt,value
2019-05-25T00:01:48.918Z,17.80
2019-05-25T00:04:19.355Z,17.70
2019-05-25T00:06:49.786Z,17.60
2019-05-25T00:09:20.287Z,17.50
2019-05-25T00:11:50.745Z,17.50
2019-05-25T00:14:21.179Z,17.40
2019-05-25T00:16:51.672Z,17.40
2019-05-25T00:19:22.295Z,17.40
2019-05-25T00:21:52.877Z,17.40
2019-05-25T00:24:23.315Z,17.30
2019-05-25T00:26:53.815Z,17.30
2019-05-25T00:29:24.236Z,17.20
2019-05-25T00:31:54.796Z,17.20
2019-05-25T00:34:25.208Z,17.10
2019-05-25T00:36:55.731Z,17.20
2019-05-25T00:39:26.367Z,17.10
2019-05-25T00:41:56.855Z,17.10
2019-05-25T00:44:27.350Z,17.10
2019-05-25T00:46:57.743Z,17.10
2019-05-25T00:49:28.419Z,17.10
2019-05-25T00:51:58.893Z,17.10
2019-05-25T00:54:29.290Z,17.10
2019-05-25T00:56:59.751Z,17.00
2019-05-25T00:59:30.156Z,17.00
2019-05-25T01:02:00.926Z,17.00
2019-05-25T01:04:31.555Z,16.90
2019-05-25T01:07:02.022Z,16.90
2019-05-25T01:09:32.538Z,16.90
2019-05-25T01:12:02.973Z,17.00
2019-05-25T01:14:33.379Z,17.00
2019-05-25T01:17:03.894Z,16.90
2019-05-25T01:19:34.627Z,16.90
2019-05-25T01:22:05.337Z,16.90
2019-05-25T01:24:44.515Z,16.90
2019-05-25T01:27:07.958Z,16.80
2019-05-25T01:29:38.397Z,16.80
2019-05-25T01:32:08.821Z,16.80
2019-05-25T01:34:39.265Z,16.80
2019-05-25T01:37:09.659Z,16.80
2019-05-25T01:39:40.112Z,16.80
2019-05-25T01:42:10.542Z,16.80
2019-05-25T01:44:41.037Z,16.80
2019-05-25T01:47:11.471Z,16.70
2019-05-25T01:49:41.935Z,16.70
2019-05-25T01:52:12.641Z,16.60
2019-05-25T01:54:57.137Z,16.60
2019-05-25T01:57:15.264Z,16.50
2019-05-25T01:59:45.737Z,16.50
2019-05-25T02:02:16.182Z,16.40
2019-05-25T02:04:46.673Z,16.40
2019-05-25T02:07:17.074Z,16.40
2019-05-25T02:09:47.650Z,16.40
2019-05-25T02:12:18.078Z,16.40
2019-05-25T02:14:48.527Z,16.40
2019-05-25T02:17:18.997Z,16.40
2019-05-25T02:19:49.390Z,16.40
2019-05-25T02:22:19.867Z,16.50
2019-05-25T02:24:50.293Z,16.40
2019-05-25T02:27:20.754Z,16.50
2019-05-25T02:29:51.190Z,16.60
2019-05-25T02:32:21.637Z,16.50
2019-05-25T02:34:52.162Z,16.50
2019-05-25T02:37:22.604Z,16.40
2019-05-25T02:39:53.018Z,16.40
2019-05-25T02:42:23.481Z,16.40
2019-05-25T02:44:53.909Z,16.40
2019-05-25T02:47:24.335Z,16.40
2019-05-25T02:49:54.757Z,16.40
2019-05-25T02:52:25.239Z,16.40
2019-05-25T02:54:55.665Z,16.50
2019-05-25T02:57:26.233Z,16.50
2019-05-25T02:59:56.614Z,16.50
2019-05-25T03:02:27.052Z,16.60
2019-05-25T03:04:57.663Z,16.50
2019-05-25T03:07:30.028Z,16.40
2019-05-25T03:10:01.681Z,16.40
2019-05-25T03:12:32.328Z,16.40
2019-05-25T03:15:03.320Z,16.40
2019-05-25T03:17:34.114Z,16.40
2019-05-25T03:20:04.719Z,16.50
2019-05-25T03:22:35.405Z,16.50
2019-05-25T03:25:06.204Z,16.40
2019-05-25T03:27:36.653Z,16.40
2019-05-25T03:30:07.995Z,16.30
2019-05-25T03:32:38.404Z,16.30
2019-05-25T03:35:09.217Z,16.30
2019-05-25T03:37:39.628Z,16.30
2019-05-25T03:40:10.852Z,16.30
2019-05-25T03:42:41.403Z,16.20
2019-05-25T03:45:11.858Z,16.20
2019-05-25T03:47:42.263Z,16.20
2019-05-25T03:50:12.773Z,16.30
2019-05-25T03:52:43.226Z,16.30
2019-05-25T03:55:13.690Z,16.30
2019-05-25T03:57:44.073Z,16.30
2019-05-25T04:00:15.128Z,16.30
2019-05-25T04:02:45.619Z,16.30
2019-05-25T04:05:16.057Z,16.30
2019-05-25T04:07:48.755Z,16.30
2019-05-25T04:10:19.288Z,16.20
2019-05-25T04:12:49.858Z,16.30
2019-05-25T04:15:20.243Z,16.30
2019-05-25T04:17:50.716Z,16.30
2019-05-25T04:20:21.132Z,16.40
2019-05-25T04:22:51.575Z,16.40
2019-05-25T04:25:22.397Z,16.50
2019-05-25T04:27:52.963Z,16.50
2019-05-25T04:30:23.385Z,16.60
2019-05-25T04:32:53.830Z,16.60
2019-05-25T04:35:24.271Z,16.60
2019-05-25T04:37:54.689Z,16.60
2019-05-25T04:40:25.231Z,16.60
2019-05-25T04:42:55.705Z,16.60
2019-05-25T04:45:26.389Z,16.60
2019-05-25T04:47:56.907Z,16.60
2019-05-25T04:50:27.446Z,16.60
2019-05-25T04:52:57.890Z,16.60
2019-05-25T04:55:28.323Z,16.70
2019-05-25T04:57:59.105Z,16.80
2019-05-25T05:00:30.158Z,16.90
2019-05-25T05:03:00.615Z,16.80
2019-05-25T05:05:31.047Z,17.00
2019-05-25T05:08:01.541Z,17.10
2019-05-25T05:10:32.090Z,17.20
2019-05-25T05:13:02.551Z,17.40
2019-05-25T05:15:33.020Z,17.50
2019-05-25T05:18:03.466Z,17.70
2019-05-25T05:20:33.975Z,18.00
2019-05-25T05:23:04.428Z,18.00
2019-05-25T05:25:34.845Z,18.10
2019-05-25T05:28:05.489Z,18.10
2019-05-25T05:30:36.445Z,18.20
2019-05-25T05:33:07.023Z,18.20
2019-05-25T05:35:39.313Z,18.20
2019-05-25T05:38:09.875Z,18.30
2019-05-25T05:40:40.323Z,18.30
2019-05-25T05:43:12.278Z,18.20
2019-05-25T05:45:43.795Z,18.90
2019-05-25T05:48:14.447Z,19.60
2019-05-25T05:50:47.567Z,19.80
2019-05-25T05:53:20.039Z,19.70
2019-05-25T05:55:50.515Z,19.80
2019-05-25T05:58:21.009Z,19.90
2019-05-25T06:00:51.418Z,20.10
2019-05-25T06:03:21.802Z,20.50
2019-05-25T06:05:52.448Z,21.10
2019-05-25T06:08:22.904Z,22.40
2019-05-25T06:10:53.497Z,23.30
2019-05-25T06:13:24.311Z,24.50
2019-05-25T06:15:55.975Z,25.80
2019-05-25T06:18:26.801Z,27.00
2019-05-25T06:20:57.236Z,27.80
2019-05-25T06:23:27.710Z,29.20
2019-05-25T06:25:58.181Z,30.50
2019-05-25T06:28:28.843Z,31.00
2019-05-25T06:30:59.293Z,30.40
2019-05-25T06:33:29.814Z,31.40
2019-05-25T06:36:00.243Z,31.90
2019-05-25T06:38:30.988Z,32.90
2019-05-25T06:41:01.513Z,33.40
2019-05-25T06:43:31.983Z,34.10
2019-05-25T06:46:02.595Z,34.60
2019-05-25T06:48:35.007Z,34.90
2019-05-25T06:51:05.369Z,35.30
2019-05-25T06:53:35.826Z,35.30
2019-05-25T06:56:06.479Z,34.50
2019-05-25T06:58:36.948Z,34.80
2019-05-25T07:01:07.382Z,34.30
2019-05-25T07:03:37.956Z,35.40
2019-05-25T07:06:08.517Z,36.30
2019-05-25T07:08:39.016Z,37.30
2019-05-25T07:11:09.575Z,38.40
2019-05-25T07:13:40.013Z,38.70
2019-05-25T07:16:10.611Z,39.40
2019-05-25T07:18:42.613Z,39.30
2019-05-25T07:21:13.129Z,40.20
2019-05-25T07:23:43.629Z,41.10
2019-05-25T07:26:14.073Z,41.00
2019-05-25T07:28:44.815Z,40.40
2019-05-25T07:31:15.343Z,40.10
2019-05-25T07:33:45.871Z,39.40
2019-05-25T07:36:16.550Z,38.20
2019-05-25T07:38:47.244Z,37.90
2019-05-25T07:41:17.698Z,38.30
2019-05-25T07:43:48.452Z,38.60
2019-05-25T07:46:18.930Z,39.00
2019-05-25T07:48:50.449Z,39.60
2019-05-25T07:51:21.121Z,40.10
2019-05-25T07:53:51.800Z,39.90
2019-05-25T07:56:22.292Z,38.70
2019-05-25T07:58:52.757Z,37.50
2019-05-25T08:01:23.170Z,36.40
2019-05-25T08:03:53.669Z,35.90
2019-05-25T08:06:24.263Z,36.50
2019-05-25T08:08:54.790Z,37.20
2019-05-25T08:11:25.470Z,38.80
2019-05-25T08:13:55.908Z,40.00
2019-05-25T08:16:26.432Z,39.90
2019-05-25T08:18:57.329Z,39.90
2019-05-25T08:21:27.805Z,39.60
2019-05-25T08:23:58.340Z,38.50
2019-05-25T08:26:28.844Z,38.30
2019-05-25T08:28:59.384Z,38.30
2019-05-25T08:31:29.851Z,38.20
2019-05-25T08:34:00.466Z,38.40
2019-05-25T08:36:30.920Z,38.50
2019-05-25T08:39:01.396Z,38.10
2019-05-25T08:41:31.886Z,37.50
2019-05-25T08:44:04.556Z,37.20
2019-05-25T08:46:34.533Z,37.70
2019-05-25T08:49:05.151Z,37.50
2019-05-25T08:51:35.561Z,36.70
2019-05-25T08:54:06.007Z,35.80
2019-05-25T08:56:36.454Z,35.30
2019-05-25T08:59:06.925Z,34.80
2019-05-25T09:01:37.425Z,34.10
2019-05-25T09:04:07.833Z,34.00
2019-05-25T09:06:38.448Z,34.10
2019-05-25T09:09:09.574Z,33.80
2019-05-25T09:11:40.101Z,34.40
2019-05-25T09:14:10.534Z,34.80
2019-05-25T09:16:41.276Z,36.20
2019-05-25T09:19:11.749Z,36.90
2019-05-25T09:22:01.015Z,35.50
2019-05-25T09:24:16.884Z,34.10
2019-05-25T09:26:47.367Z,32.90
2019-05-25T09:29:17.763Z,32.70
2019-05-25T09:31:48.234Z,33.10
2019-05-25T09:34:18.673Z,33.60
2019-05-25T09:36:49.403Z,36.30
2019-05-25T09:39:19.837Z,39.30
2019-05-25T09:41:50.557Z,42.10
2019-05-25T09:44:21.083Z,44.20
2019-05-25T09:46:51.522Z,45.40
2019-05-25T09:49:21.989Z,45.90
2019-05-25T09:51:52.404Z,46.90
2019-05-25T09:54:22.841Z,47.20
2019-05-25T09:56:53.298Z,48.00
2019-05-25T09:59:23.730Z,48.40
2019-05-25T10:01:54.119Z,48.50
2019-05-25T10:04:24.579Z,48.40
2019-05-25T10:06:55.001Z,48.50
2019-05-25T10:09:25.554Z,48.70
2019-05-25T10:11:56.123Z,47.90
2019-05-25T10:14:26.587Z,47.40
2019-05-25T10:16:57.125Z,47.00
2019-05-25T10:19:34.306Z,46.80
2019-05-25T10:22:05.052Z,46.00
2019-05-25T10:24:35.554Z,45.70
2019-05-25T10:27:06.079Z,45.20
2019-05-25T10:29:37.819Z,44.80
2019-05-25T10:32:08.443Z,43.60
2019-05-25T10:34:39.056Z,41.80
2019-05-25T10:37:09.487Z,40.20
2019-05-25T10:39:41.251Z,38.60
2019-05-25T10:42:11.774Z,37.30
2019-05-25T10:44:42.425Z,35.70
2019-05-25T10:47:17.404Z,34.70
2019-05-25T10:49:48.191Z,33.30
2019-05-25T10:52:18.670Z,32.20
2019-05-25T10:54:53.972Z,31.50
2019-05-25T10:57:24.434Z,30.80
2019-05-25T10:59:56.228Z,30.10
2019-05-25T11:02:26.793Z,29.60
2019-05-25T11:04:58.382Z,29.30
2019-05-25T11:07:32.983Z,29.30
2019-05-25T11:10:03.605Z,29.10
2019-05-25T11:12:34.060Z,29.00
2019-05-25T11:15:04.719Z,29.00
2019-05-25T11:17:37.127Z,28.90
2019-05-25T11:20:15.008Z,28.70
2019-05-25T11:22:45.495Z,28.40
2019-05-25T11:25:16.685Z,28.30
2019-05-25T11:27:47.153Z,28.20
2019-05-25T11:30:19.333Z,27.80
2019-05-25T11:32:49.873Z,27.50
2019-05-25T11:35:35.865Z,27.40
2019-05-25T11:38:32.511Z,27.40
2019-05-25T11:41:20.371Z,27.30
2019-05-25T11:44:02.161Z,27.10
2019-05-25T11:46:32.711Z,27.00
2019-05-25T11:49:04.927Z,26.80
2019-05-25T11:51:35.386Z,26.70
2019-05-25T11:54:06.148Z,26.40
2019-05-25T11:56:36.675Z,26.00
2019-05-25T11:59:07.156Z,25.70
2019-05-25T12:01:37.631Z,25.50
2019-05-25T12:04:08.231Z,25.60
2019-05-25T12:06:38.681Z,25.50
2019-05-25T12:09:13.824Z,25.40
2019-05-25T12:11:41.680Z,25.50
2019-05-25T12:14:15.191Z,25.30
2019-05-25T12:16:45.633Z,25.50
2019-05-25T12:19:16.602Z,25.60
2019-05-25T12:21:47.800Z,25.50
2019-05-25T12:24:18.212Z,25.50
2019-05-25T12:26:48.662Z,25.60
2019-05-25T12:29:19.134Z,25.60
2019-05-25T12:32:03.608Z,25.50
2019-05-25T12:34:26.156Z,25.60
2019-05-25T12:36:56.574Z,25.40
2019-05-25T12:39:27.704Z,25.50
2019-05-25T12:41:58.243Z,25.50
2019-05-25T12:44:28.687Z,25.70
2019-05-25T12:46:59.232Z,25.40
2019-05-25T12:49:29.806Z,25.40
2019-05-25T12:52:00.285Z,25.30
2019-05-25T12:54:30.707Z,25.40
2019-05-25T12:57:02.822Z,25.40
2019-05-25T12:59:33.438Z,25.50
2019-05-25T13:02:03.912Z,25.60
2019-05-25T13:04:34.335Z,25.60
2019-05-25T13:07:04.796Z,25.50
2019-05-25T13:09:35.212Z,25.40
2019-05-25T13:12:05.946Z,25.40
2019-05-25T13:14:36.361Z,25.40
2019-05-25T13:17:06.818Z,25.40
2019-05-25T13:19:37.209Z,25.40
2019-05-25T13:22:07.711Z,25.30
2019-05-25T13:24:38.238Z,25.20
2019-05-25T13:27:08.830Z,25.20
2019-05-25T13:29:39.279Z,25.20
2019-05-25T13:32:09.755Z,25.10
2019-05-25T13:34:41.530Z,25.10
2019-05-25T13:37:11.942Z,25.10
2019-05-25T13:39:42.433Z,25.20
2019-05-25T13:42:12.816Z,25.10
2019-05-25T13:44:43.255Z,25.00
2019-05-25T13:47:13.658Z,25.10
2019-05-25T13:49:44.096Z,25.00
2019-05-25T13:52:14.489Z,25.00
2019-05-25T13:54:44.915Z,25.00
2019-05-25T13:57:15.387Z,25.10
2019-05-25T13:59:45.891Z,25.00
2019-05-25T14:02:16.403Z,25.00
2019-05-25T14:04:46.832Z,25.00
2019-05-25T14:07:17.311Z,25.00
2019-05-25T14:09:47.830Z,25.00
2019-05-25T14:12:18.281Z,25.00
2019-05-25T14:14:48.712Z,24.90
2019-05-25T14:17:19.160Z,24.80
2019-05-25T14:19:49.514Z,24.70
2019-05-25T14:22:20.005Z,24.60
2019-05-25T14:24:50.544Z,24.60
2019-05-25T14:27:21.351Z,24.60
2019-05-25T14:29:51.750Z,24.70
2019-05-25T14:32:22.205Z,24.70
2019-05-25T14:34:53.689Z,24.80
2019-05-25T14:37:24.496Z,24.80
2019-05-25T14:39:54.905Z,25.00
2019-05-25T14:42:25.401Z,25.00
2019-05-25T14:44:55.835Z,25.10
2019-05-25T14:47:26.435Z,25.10
2019-05-25T14:49:56.880Z,25.10
2019-05-25T14:52:27.447Z,25.20
2019-05-25T14:54:57.829Z,25.30
2019-05-25T14:57:28.401Z,25.30
2019-05-25T14:59:59.083Z,25.30
2019-05-25T15:02:29.530Z,25.30
2019-05-25T15:05:00.036Z,25.30
2019-05-25T15:07:30.509Z,25.20
2019-05-25T15:10:01.068Z,25.20
2019-05-25T15:12:31.487Z,25.20
2019-05-25T15:15:01.913Z,25.20
2019-05-25T15:17:32.313Z,25.00
2019-05-25T15:20:02.800Z,24.90
2019-05-25T15:22:33.173Z,24.90
2019-05-25T15:25:03.621Z,24.80
2019-05-25T15:27:34.252Z,24.80
2019-05-25T15:30:05.203Z,24.70
2019-05-25T15:32:35.773Z,24.40
2019-05-25T15:35:06.409Z,24.40
2019-05-25T15:37:36.896Z,24.40
2019-05-25T15:40:08.934Z,24.30
2019-05-25T15:42:39.393Z,24.20
2019-05-25T15:45:10.257Z,24.10
2019-05-25T15:47:40.679Z,24.00
2019-05-25T15:50:12.312Z,24.00
2019-05-25T15:52:42.831Z,24.10
2019-05-25T15:55:13.403Z,24.30
2019-05-25T15:57:43.899Z,24.20
2019-05-25T16:00:17.099Z,24.40
2019-05-25T16:02:47.521Z,24.40
2019-05-25T16:05:18.217Z,24.50
2019-05-25T16:07:53.082Z,24.60
2019-05-25T16:10:23.595Z,24.60
2019-05-25T16:12:54.059Z,24.50
2019-05-25T16:15:30.714Z,24.60
2019-05-25T16:18:01.171Z,24.20
2019-05-25T16:20:31.785Z,24.20
2019-05-25T16:23:02.255Z,24.00
2019-05-25T16:25:32.771Z,23.80
2019-05-25T16:28:03.194Z,23.80
2019-05-25T16:30:33.745Z,23.70
2019-05-25T16:33:13.756Z,23.50
2019-05-25T16:35:36.607Z,23.50
2019-05-25T16:38:07.252Z,23.40
2019-05-25T16:40:37.787Z,23.20
2019-05-25T16:43:08.208Z,23.10
2019-05-25T16:45:38.895Z,22.80
2019-05-25T16:48:09.338Z,22.70
2019-05-25T16:50:39.848Z,22.70
2019-05-25T16:53:10.328Z,22.80
2019-05-25T16:55:40.768Z,22.90
2019-05-25T16:58:11.218Z,22.80
2019-05-25T17:00:41.671Z,22.80
2019-05-25T17:03:27.033Z,22.80
2019-05-25T17:05:44.364Z,22.80
2019-05-25T17:08:14.807Z,22.80
2019-05-25T17:10:45.326Z,22.70
2019-05-25T17:13:15.779Z,22.60
2019-05-25T17:15:46.307Z,22.40
2019-05-25T17:18:16.786Z,22.50
2019-05-25T17:20:47.441Z,22.40
2019-05-25T17:23:18.002Z,22.40
2019-05-25T17:25:48.563Z,22.40
2019-05-25T17:28:19.018Z,22.40
2019-05-25T17:30:52.266Z,22.40
2019-05-25T17:33:22.748Z,22.40
2019-05-25T17:35:53.176Z,22.50
2019-05-25T17:38:23.620Z,22.50
2019-05-25T17:40:54.047Z,22.50
2019-05-25T17:43:24.480Z,22.50
2019-05-25T17:45:55.032Z,22.40
2019-05-25T17:48:44.563Z,22.30
2019-05-25T17:51:15.090Z,22.40
2019-05-25T17:53:45.602Z,22.30
2019-05-25T17:56:16.083Z,22.30
2019-05-25T17:58:46.551Z,22.30
2019-05-25T18:01:17.015Z,22.30
2019-05-25T18:04:04.993Z,22.30
2019-05-25T18:06:19.594Z,22.20
2019-05-25T18:08:50.039Z,22.20
2019-05-25T18:11:20.740Z,22.20
2019-05-25T18:13:51.183Z,22.10
2019-05-25T18:16:21.726Z,22.00
2019-05-25T18:18:52.167Z,22.00
2019-05-25T18:21:23.676Z,22.00
2019-05-25T18:23:54.114Z,22.00
2019-05-25T18:26:24.702Z,22.00
2019-05-25T18:28:55.110Z,21.90
2019-05-25T18:31:25.586Z,21.80
2019-05-25T18:33:57.220Z,21.80
2019-05-25T18:36:27.907Z,21.70
2019-05-25T18:38:58.392Z,21.60
2019-05-25T18:41:29.330Z,21.50
2019-05-25T18:44:02.344Z,21.40
2019-05-25T18:46:33.021Z,21.30
2019-05-25T18:49:03.470Z,21.20
2019-05-25T18:51:34.056Z,21.20
2019-05-25T18:54:04.602Z,21.00
2019-05-25T18:56:38.143Z,21.00
2019-05-25T18:59:08.608Z,21.00
2019-05-25T19:01:40.604Z,20.90
2019-05-25T19:04:12.394Z,20.80
2019-05-25T19:06:42.968Z,20.60
2019-05-25T19:09:16.451Z,20.60
2019-05-25T19:11:52.943Z,20.50
2019-05-25T19:14:23.384Z,20.50
2019-05-25T19:16:53.942Z,20.50
2019-05-25T19:19:24.468Z,20.40
2019-05-25T19:21:54.902Z,20.30
2019-05-25T19:24:25.512Z,20.30
2019-05-25T19:26:58.764Z,20.20
2019-05-25T19:29:29.227Z,20.20
2019-05-25T19:31:59.658Z,20.10
2019-05-25T19:34:30.072Z,20.10
2019-05-25T19:37:03.675Z,20.10
2019-05-25T19:39:32.836Z,20.00
2019-05-25T19:42:03.304Z,20.00
2019-05-25T19:44:33.960Z,19.90
2019-05-25T19:47:04.379Z,19.90
2019-05-25T19:49:34.837Z,19.90
2019-05-25T19:52:05.493Z,19.80
2019-05-25T19:54:35.926Z,19.90
2019-05-25T19:57:06.515Z,19.80
2019-05-25T19:59:37.051Z,19.80
2019-05-25T20:02:07.571Z,19.70
2019-05-25T20:04:38.048Z,19.70
2019-05-25T20:07:08.581Z,19.60
2019-05-25T20:09:39.092Z,19.70
2019-05-25T20:12:09.572Z,19.60
2019-05-25T20:14:39.956Z,19.50
2019-05-25T20:17:10.429Z,19.50
2019-05-25T20:19:40.835Z,19.40
2019-05-25T20:22:11.287Z,19.40
2019-05-25T20:24:41.753Z,19.40
2019-05-25T20:27:12.201Z,19.50
2019-05-25T20:29:43.034Z,19.40
2019-05-25T20:32:13.558Z,19.20
2019-05-25T20:34:45.899Z,19.30
2019-05-25T20:37:16.527Z,19.20
2019-05-25T20:39:50.152Z,19.20
2019-05-25T20:42:20.645Z,19.20
2019-05-25T20:44:51.177Z,19.20
2019-05-25T20:47:22.558Z,19.10
2019-05-25T20:49:53.377Z,19.00
2019-05-25T20:52:24.163Z,19.00
2019-05-25T20:54:54.666Z,19.00
2019-05-25T20:57:25.706Z,18.90
2019-05-25T20:59:56.419Z,18.80
2019-05-25T21:02:26.918Z,18.80
2019-05-25T21:04:57.706Z,18.80
2019-05-25T21:07:28.447Z,18.80
2019-05-25T21:09:59.272Z,18.70
2019-05-25T21:12:30.022Z,18.70
2019-05-25T21:15:00.704Z,18.70
2019-05-25T21:17:31.135Z,18.70
2019-05-25T21:20:01.685Z,18.70
2019-05-25T21:22:32.303Z,18.60
2019-05-25T21:25:05.824Z,18.70
2019-05-25T21:27:35.095Z,18.60
2019-05-25T21:30:06.623Z,18.60
2019-05-25T21:32:37.223Z,18.50
2019-05-25T21:35:08.921Z,18.60
2019-05-25T21:37:39.468Z,18.50
2019-05-25T21:40:11.473Z,18.40
2019-05-25T21:42:42.764Z,18.30
2019-05-25T21:45:13.934Z,18.20
2019-05-25T21:47:44.597Z,18.10
2019-05-25T21:50:17.173Z,18.10
2019-05-25T21:52:48.287Z,18.00
2019-05-25T21:55:19.074Z,17.90
2019-05-25T21:57:50.406Z,17.90
2019-05-25T22:00:25.826Z,17.80
2019-05-25T22:02:57.762Z,17.80
2019-05-25T22:05:30.704Z,17.50
2019-05-25T22:08:01.133Z,17.50
2019-05-25T22:10:32.707Z,17.40
2019-05-25T22:13:03.368Z,17.40
2019-05-25T22:15:34.344Z,17.20
2019-05-25T22:18:04.927Z,17.20
2019-05-25T22:20:35.394Z,17.10
2019-05-25T22:23:06.400Z,17.00
2019-05-25T22:25:37.000Z,16.90
2019-05-25T22:28:07.521Z,16.80
2019-05-25T22:30:39.964Z,16.80
2019-05-25T22:33:10.414Z,16.70
2019-05-25T22:35:40.916Z,16.60
2019-05-25T22:38:11.429Z,16.40
2019-05-25T22:40:42.319Z,16.30
2019-05-25T22:43:13.029Z,16.30
2019-05-25T22:45:43.493Z,16.20
2019-05-25T22:48:13.965Z,16.20
2019-05-25T22:50:44.548Z,16.00
2019-05-25T22:53:15.406Z,16.00
2019-05-25T22:55:46.114Z,15.90
2019-05-25T22:58:16.778Z,15.80
2019-05-25T23:00:47.251Z,15.70
2019-05-25T23:03:17.746Z,15.70
2019-05-25T23:05:48.323Z,15.60
2019-05-25T23:08:20.074Z,15.60
2019-05-25T23:10:50.586Z,15.50
2019-05-25T23:13:21.253Z,15.50
2019-05-25T23:15:51.760Z,15.40
2019-05-25T23:18:22.437Z,15.30
2019-05-25T23:20:54.008Z,15.30
2019-05-25T23:23:24.552Z,15.10
2019-05-25T23:25:55.069Z,15.00
2019-05-25T23:28:25.555Z,15.00
2019-05-25T23:30:56.050Z,15.00
2019-05-25T23:33:26.506Z,14.90
2019-05-25T23:35:56.995Z,14.90
2019-05-25T23:38:27.445Z,14.80
2019-05-25T23:40:59.167Z,14.70
2019-05-25T23:43:29.634Z,14.60
2019-05-25T23:46:01.932Z,14.60
2019-05-25T23:48:33.805Z,14.60
2019-05-25T23:51:04.567Z,14.50
2019-05-25T23:53:35.054Z,14.50
2019-05-25T23:56:05.699Z,14.50
2019-05-25T23:58:36.163Z,14.40
